Rehobeth, Alabama
Current Conditions -  °F | °C
As of 3:53 PM on Thursday 18 Dec 2014 (Local Time) from KDHN Reporting Station
Broken Clouds Broken Clouds  
Wind Chill: 63°   Ceiling: 11000
Heat Index: 63°   Visibility: 10mi
Dew Point: 30°   Wind: 5mph
Humidity: 29%   Direction: 250°WSW
Pressure: 30.13"   Gusts: NA
Location:  31.271°N, 85.3923°W
Report Text: KDHN 182153Z 25004KT 10SM BKN110 17/M01 A3013 RMK AO2 SLP202 T01721011 $
Loading
Personal Weather Stations






























Interactive Weather Map New forecast layout! Learn more

10-Day Weather Forecast

Advertisements
Track Severe Weather on mobile